Tabellarische Übersicht vom Dienstag, den 05.07.2022

Oder anderes Datum wählen:






max 23,3°C 89,0% 12,8°C 1021,9hPa 22,0°C 22,7km/h (4Bft) 8,6km/h 358° (N) ∑0,0l/m² 108,000klx ∑0,0min
min 13,1°C 39,0% 7,7°C 1019,8hPa 13,0°C 0,0km/h (0Bft) 0,0km/h 5° (N) ∑0,0l/m² 0,000klx ∑0,0min
Ø 17,3°C 69,0% 10,9°C 1021,0hPa 17,0°C 6,7km/h (2Bft) 2,9km/h 215° (SW) ∑0,0l/m² 36,000klx ∑0,0min
Zeit Temperatur Luftfeuchte Taupunkt Luftdruck Windchill Windböen Windgeschwindigkeit Windrichtung Regen Helligkeit Regenzeit
14:25 22,0°C 42,2% 8,6°C 1021,2hPa 22,0°C 13,7km/h (3Bft) 5,1km/h 330° (NW) 0,0l/m² 48,186klx 0,0min
14:20 21,9°C 42,2% 8,5°C 1021,3hPa 21,8°C 14,4km/h (3Bft) 6,7km/h 322° (NW) 0,0l/m² 87,220klx 0,0min
14:15 21,3°C 43,7% 8,5°C 1021,4hPa 21,3°C 15,1km/h (3Bft) 5,7km/h 299° (NW) 0,0l/m² 59,475klx 0,0min
14:10 21,4°C 43,2% 8,4°C 1021,5hPa 21,4°C 18,4km/h (3Bft) 5,9km/h 305° (NW) 0,0l/m² 33,020klx 0,0min
14:05 21,9°C 42,4% 8,6°C 1021,4hPa 21,7°C 17,3km/h (3Bft) 7,2km/h 304° (NW) 0,0l/m² 49,820klx 0,0min
14:00 21,8°C 42,0% 8,3°C 1021,5hPa 21,8°C 15,5km/h (3Bft) 6,3km/h 275° (W) 0,0l/m² 107,717klx 0,0min
13:55 21,4°C 42,0% 7,9°C 1021,6hPa 21,2°C 16,2km/h (3Bft) 6,9km/h 292° (W) 0,0l/m² 61,498klx 0,0min
13:50 21,7°C 42,4% 8,3°C 1021,6hPa 21,0°C 19,4km/h (3Bft) 8,4km/h 294° (NW) 0,0l/m² 57,420klx 0,0min
13:45 21,4°C 45,2% 9,1°C 1021,7hPa 21,4°C 10,8km/h (2Bft) 5,6km/h 277° (W) 0,0l/m² 95,164klx 0,0min
13:40 21,1°C 45,5% 8,9°C 1021,7hPa 21,1°C 16,6km/h (3Bft) 5,7km/h 287° (W) 0,0l/m² 47,285klx 0,0min
13:35 21,7°C 43,1% 8,6°C 1021,7hPa 21,7°C 17,3km/h (3Bft) 6,2km/h 282° (W) 0,0l/m² 24,215klx 0,0min
13:30 22,5°C 39,9% 8,2°C 1021,6hPa 22,5°C 14,0km/h (3Bft) 6,4km/h 252° (W) 0,0l/m² 62,021klx 0,0min
13:25 22,1°C 40,7% 8,1°C 1021,6hPa 22,1°C 17,6km/h (3Bft) 6,0km/h 307° (NW) 0,0l/m² 104,421klx 0,0min
13:20 21,6°C 40,7% 7,7°C 1021,7hPa 21,5°C 18,4km/h (3Bft) 6,6km/h 319° (NW) 0,0l/m² 91,552klx 0,0min
13:15 21,4°C 42,3% 8,1°C 1021,7hPa 21,4°C 14,8km/h (3Bft) 6,5km/h 255° (W) 0,0l/m² 68,989klx 0,0min
13:10 21,4°C 43,7% 8,5°C 1021,6hPa 21,0°C 15,5km/h (3Bft) 7,5km/h 350° (N) 0,0l/m² 59,304klx 0,0min
13:05 21,5°C 43,4% 8,6°C 1021,7hPa 20,8°C 18,4km/h (3Bft) 8,6km/h 334° (NW) 0,0l/m² 39,082klx 0,0min
13:00 22,2°C 41,3% 8,4°C 1021,7hPa 21,7°C 22,7km/h (4Bft) 7,7km/h 277° (W) 0,0l/m² 38,307klx 0,0min
12:55 22,2°C 40,9% 8,3°C 1021,7hPa 22,1°C 21,2km/h (4Bft) 6,7km/h 242° (SW) 0,0l/m² 103,929klx 0,0min
12:50 22,2°C 41,0% 8,3°C 1021,7hPa 22,2°C 11,5km/h (2Bft) 5,1km/h 297° (NW) 0,0l/m² 58,572klx 0,0min
12:45 21,4°C 42,3% 8,1°C 1021,8hPa 21,4°C 9,7km/h (2Bft) 4,8km/h 296° (NW) 0,0l/m² 98,989klx 0,0min
12:40 21,1°C 43,9% 8,3°C 1021,8hPa 21,1°C 16,2km/h (3Bft) 5,9km/h 278° (W) 0,0l/m² 20,479klx 0,0min
12:35 22,1°C 43,0% 8,9°C 1021,7hPa 22,1°C 16,6km/h (3Bft) 5,6km/h 287° (W) 0,0l/m² 28,539klx 0,0min
12:30 23,0°C 40,2% 8,7°C 1021,8hPa 22,6°C 19,4km/h (3Bft) 7,5km/h 299° (NW) 0,0l/m² 76,762klx 0,0min
12:25 23,0°C 39,9% 8,6°C 1021,7hPa 23,0°C 16,2km/h (3Bft) 6,0km/h 258° (W) 0,0l/m² 92,082klx 0,0min
12:20 23,3°C 38,8% 8,5°C 1021,7hPa 23,3°C 11,5km/h (2Bft) 5,4km/h 305° (NW) 0,0l/m² 96,073klx 0,0min
12:15 23,0°C 39,0% 8,3°C 1021,8hPa 23,0°C 11,9km/h (2Bft) 5,2km/h 284° (W) 0,0l/m² 99,787klx 0,0min
12:10 22,6°C 41,9% 9,0°C 1021,8hPa 22,6°C 10,4km/h (2Bft) 4,4km/h 236° (SW) 0,0l/m² 93,908klx 0,0min
12:05 21,4°C 44,4% 8,8°C 1021,9hPa 21,4°C 15,5km/h (3Bft) 4,9km/h 314° (NW) 0,0l/m² 54,239klx 0,0min
12:00 22,4°C 42,4% 8,9°C 1021,8hPa 22,3°C 17,3km/h (3Bft) 6,6km/h 305° (NW) 0,0l/m² 56,969klx 0,0min
11:55 22,5°C 42,6% 9,1°C 1021,8hPa 22,5°C 14,0km/h (3Bft) 5,5km/h 303° (NW) 0,0l/m² 93,533klx 0,0min
11:50 22,2°C 44,0% 9,4°C 1021,8hPa 22,2°C 12,6km/h (3Bft) 6,2km/h 292° (W) 0,0l/m² 91,082klx 0,0min
11:45 21,2°C 48,0% 9,8°C 1021,8hPa 21,2°C 11,5km/h (2Bft) 4,8km/h 286° (W) 0,0l/m² 93,376klx 0,0min
11:40 20,3°C 49,2% 9,3°C 1021,9hPa 20,3°C 16,6km/h (3Bft) 4,9km/h 255° (W) 0,0l/m² 32,171klx 0,0min
11:35 21,4°C 47,0% 9,6°C 1021,8hPa 21,4°C 13,7km/h (3Bft) 5,4km/h 265° (W) 0,0l/m² 30,952klx 0,0min
11:30 22,7°C 45,5% 10,3°C 1021,8hPa 22,7°C 9,7km/h (2Bft) 3,9km/h 243° (SW) 0,0l/m² 72,476klx 0,0min
11:25 22,1°C 49,2% 11,0°C 1021,7hPa 22,1°C 5,4km/h (1Bft) 2,7km/h 259° (W) 0,0l/m² 83,004klx 0,0min
11:20 21,3°C 51,6% 10,9°C 1021,8hPa 21,3°C 4,7km/h (1Bft) 2,3km/h 216° (SW) 0,0l/m² 67,450klx 0,0min
11:15 20,8°C 52,3% 10,7°C 1021,8hPa 20,8°C 7,6km/h (2Bft) 3,4km/h 14° (N) 0,0l/m² 43,236klx 0,0min
11:10 20,8°C 51,3% 10,4°C 1021,8hPa 20,8°C 9,0km/h (2Bft) 3,9km/h 255° (W) 0,0l/m² 45,322klx 0,0min
11:05 20,9°C 51,9% 10,6°C 1021,8hPa 20,9°C 7,6km/h (2Bft) 3,6km/h 258° (W) 0,0l/m² 63,632klx 0,0min
11:00 19,5°C 54,6% 10,2°C 1021,8hPa 19,5°C 6,8km/h (2Bft) 2,7km/h 285° (W) 0,0l/m² 31,543klx 0,0min
10:55 19,6°C 53,8% 9,9°C 1021,8hPa 19,6°C 7,6km/h (2Bft) 3,4km/h 282° (W) 0,0l/m² 22,700klx 0,0min
10:50 19,6°C 54,4% 10,1°C 1021,8hPa 19,6°C 10,4km/h (2Bft) 4,4km/h 281° (W) 0,0l/m² 22,518klx 0,0min
10:45 19,7°C 54,7% 10,3°C 1021,8hPa 19,7°C 13,3km/h (3Bft) 3,9km/h 307° (NW) 0,0l/m² 20,851klx 0,0min
10:40 19,8°C 54,5% 10,3°C 1021,8hPa 19,8°C 7,2km/h (2Bft) 2,9km/h 225° (SW) 0,0l/m² 19,590klx 0,0min
10:35 20,4°C 52,2% 10,3°C 1021,8hPa 20,4°C 7,9km/h (2Bft) 3,6km/h 212° (SW) 0,0l/m² 18,321klx 0,0min
10:30 21,6°C 48,7% 10,3°C 1021,8hPa 21,6°C 11,2km/h (2Bft) 5,3km/h 199° (S) 0,0l/m² 37,016klx 0,0min
10:25 22,3°C 47,9% 10,8°C 1021,8hPa 22,3°C 10,1km/h (2Bft) 4,3km/h 212° (SW) 0,0l/m² 58,570klx 0,0min
10:20 22,3°C 48,3% 10,8°C 1021,7hPa 22,3°C 7,9km/h (2Bft) 3,5km/h 296° (NW) 0,0l/m² 71,337klx 0,0min
10:15 22,0°C 48,1% 10,5°C 1021,8hPa 22,0°C 10,1km/h (2Bft) 5,0km/h 288° (W) 0,0l/m² 67,465klx 0,0min
10:10 20,9°C 53,8% 11,2°C 1021,8hPa 20,9°C 7,6km/h (2Bft) 3,1km/h 268° (W) 0,0l/m² 67,128klx 0,0min
10:05 19,5°C 58,7% 11,2°C 1021,8hPa 19,5°C 5,0km/h (1Bft) 2,5km/h 228° (SW) 0,0l/m² 27,922klx 0,0min
10:00 20,2°C 54,4% 10,7°C 1021,7hPa 20,2°C 7,2km/h (2Bft) 3,3km/h 250° (W) 0,0l/m² 16,211klx 0,0min
09:55 21,7°C 50,3% 10,9°C 1021,7hPa 21,7°C 10,1km/h (2Bft) 3,5km/h 28° (NO) 0,0l/m² 39,154klx 0,0min
09:50 21,7°C 51,4% 11,2°C 1021,6hPa 21,7°C 7,9km/h (2Bft) 3,2km/h 324° (NW) 0,0l/m² 61,201klx 0,0min
09:45 21,4°C 51,1% 10,8°C 1021,6hPa 21,4°C 6,5km/h (2Bft) 3,0km/h 78° (O) 0,0l/m² 55,516klx 0,0min
09:40 21,6°C 52,1% 11,3°C 1021,6hPa 21,6°C 6,8km/h (2Bft) 3,8km/h 185° (S) 0,0l/m² 50,891klx 0,0min
09:35 21,3°C 53,0% 11,3°C 1021,6hPa 21,3°C 9,4km/h (2Bft) 4,5km/h 212° (SW) 0,0l/m² 50,007klx 0,0min
09:30 20,9°C 53,1% 10,9°C 1021,6hPa 20,9°C 8,3km/h (2Bft) 4,0km/h 335° (NW) 0,0l/m² 48,179klx 0,0min
09:25 20,5°C 53,5% 10,7°C 1021,6hPa 20,5°C 6,5km/h (2Bft) 3,3km/h 104° (O) 0,0l/m² 45,879klx 0,0min
09:20 20,7°C 53,0% 10,7°C 1021,6hPa 20,7°C 5,4km/h (1Bft) 2,6km/h 28° (NO) 0,0l/m² 43,675klx 0,0min
09:15 20,9°C 54,9% 11,5°C 1021,6hPa 20,9°C 6,1km/h (2Bft) 3,0km/h 311° (NW) 0,0l/m² 42,687klx 0,0min
09:10 20,6°C 53,9% 10,9°C 1021,6hPa 20,6°C 5,0km/h (1Bft) 2,4km/h 11° (N) 0,0l/m² 42,326klx 0,0min
09:05 20,4°C 55,0% 11,1°C 1021,5hPa 20,4°C 6,1km/h (2Bft) 3,5km/h 213° (SW) 0,0l/m² 41,289klx 0,0min
09:00 20,2°C 56,0% 11,1°C 1021,5hPa 20,2°C 5,0km/h (1Bft) 2,8km/h 239° (SW) 0,0l/m² 40,356klx 0,0min
08:55 20,3°C 56,8% 11,5°C 1021,5hPa 20,3°C 5,4km/h (1Bft) 2,8km/h 223° (SW) 0,0l/m² 36,333klx 0,0min
08:50 19,9°C 59,0% 11,7°C 1021,5hPa 19,9°C 5,0km/h (1Bft) 2,6km/h 201° (S) 0,0l/m² 41,247klx 0,0min
08:45 19,7°C 61,6% 12,1°C 1021,4hPa 19,7°C 4,7km/h (1Bft) 2,0km/h 240° (SW) 0,0l/m² 36,886klx 0,0min
08:40 19,2°C 63,9% 12,2°C 1021,4hPa 19,2°C 5,0km/h (1Bft) 2,5km/h 179° (S) 0,0l/m² 34,152klx 0,0min
08:35 19,2°C 64,9% 12,4°C 1021,4hPa 19,2°C 3,6km/h (1Bft) 2,0km/h 248° (W) 0,0l/m² 32,716klx 0,0min
08:30 19,0°C 65,0% 12,2°C 1021,4hPa 19,0°C 3,6km/h (1Bft) 1,6km/h 102° (O) 0,0l/m² 30,957klx 0,0min
08:25 18,7°C 67,0% 12,4°C 1021,4hPa 18,7°C 2,9km/h (1Bft) 1,4km/h 172° (S) 0,0l/m² 29,507klx 0,0min
08:20 18,2°C 68,6% 12,4°C 1021,4hPa 18,2°C 4,0km/h (1Bft) 1,7km/h 242° (SW) 0,0l/m² 27,490klx 0,0min
08:15 17,9°C 71,3% 12,6°C 1021,3hPa 17,9°C 3,2km/h (1Bft) 2,0km/h 242° (SW) 0,0l/m² 25,870klx 0,0min
08:10 17,5°C 71,9% 12,4°C 1021,3hPa 17,5°C 4,0km/h (1Bft) 2,0km/h 245° (SW) 0,0l/m² 25,356klx 0,0min
08:05 17,0°C 74,0% 12,3°C 1021,2hPa 17,0°C 3,6km/h (1Bft) 1,8km/h 184° (S) 0,0l/m² 24,234klx 0,0min
08:00 16,6°C 75,8% 12,3°C 1021,2hPa 16,6°C 3,6km/h (1Bft) 1,6km/h 154° (SO) 0,0l/m² 23,003klx 0,0min
07:55 15,8°C 79,6% 12,3°C 1021,2hPa 15,8°C 1,1km/h (0Bft) 1,0km/h 231° (SW) 0,0l/m² 21,542klx 0,0min
07:50 15,5°C 80,3% 12,1°C 1021,2hPa 15,5°C 1,1km/h (0Bft) 1,1km/h 122° (SO) 0,0l/m² 19,552klx 0,0min
07:45 15,4°C 80,2% 12,0°C 1021,2hPa 15,4°C 0,0km/h (0Bft) 0,0km/h - 0,0l/m² 18,524klx 0,0min
07:40 15,0°C 82,6% 12,0°C 1021,2hPa 15,0°C 0,7km/h (0Bft) 0,7km/h 128° (SO) 0,0l/m² 17,637klx 0,0min
07:35 14,7°C 85,2% 12,3°C 1021,2hPa 14,7°C 3,6km/h (1Bft) 1,6km/h 172° (S) 0,0l/m² 16,350klx 0,0min
07:30 14,5°C 85,0% 12,0°C 1021,1hPa 14,5°C 5,4km/h (1Bft) 3,1km/h 178° (S) 0,0l/m² 14,758klx 0,0min
07:25 14,3°C 87,2% 12,2°C 1021,1hPa 14,3°C 4,3km/h (1Bft) 2,4km/h 220° (SW) 0,0l/m² 14,056klx 0,0min
07:20 14,3°C 86,1% 12,0°C 1021,1hPa 14,3°C 5,0km/h (1Bft) 2,2km/h 198° (S) 0,0l/m² 8,256klx 0,0min
07:15 14,2°C 86,6% 12,0°C 1021,0hPa 14,2°C 5,4km/h (1Bft) 2,4km/h 187° (S) 0,0l/m² 10,450klx 0,0min
07:10 14,1°C 86,3% 11,8°C 1021,0hPa 14,1°C 1,4km/h (0Bft) 1,0km/h 133° (SO) 0,0l/m² 11,786klx 0,0min
07:05 13,9°C 87,7% 11,9°C 1021,0hPa 13,9°C 1,1km/h (0Bft) 0,8km/h 301° (NW) 0,0l/m² 11,844klx 0,0min
07:00 13,7°C 88,4% 11,8°C 1021,0hPa 13,7°C 4,0km/h (1Bft) 2,1km/h 358° (N) 0,0l/m² 10,352klx 0,0min
06:55 13,4°C 88,8% 11,6°C 1020,9hPa 13,4°C 6,8km/h (2Bft) 3,1km/h 335° (NW) 0,0l/m² 6,943klx 0,0min
06:50 13,2°C 89,1% 11,5°C 1020,8hPa 13,2°C 7,6km/h (2Bft) 3,1km/h 314° (NW) 0,0l/m² 5,682klx 0,0min
06:45 13,2°C 89,3% 11,5°C 1020,8hPa 13,2°C 3,2km/h (1Bft) 1,8km/h 5° (N) 0,0l/m² 5,470klx 0,0min
06:40 13,2°C 88,4% 11,3°C 1020,8hPa 13,2°C 3,2km/h (1Bft) 1,7km/h 334° (NW) 0,0l/m² 5,347klx 0,0min
06:35 13,1°C 88,3% 11,2°C 1020,7hPa 13,1°C 4,7km/h (1Bft) 2,4km/h 134° (SO) 0,0l/m² 5,108klx 0,0min
06:30 13,1°C 88,9% 11,3°C 1020,7hPa 13,1°C 4,3km/h (1Bft) 1,9km/h 131° (SO) 0,0l/m² 4,690klx 0,0min
06:25 13,2°C 89,0% 11,4°C 1020,7hPa 13,2°C 3,6km/h (1Bft) 1,7km/h 155° (SO) 0,0l/m² 4,322klx 0,0min
06:20 13,2°C 88,6% 11,3°C 1020,7hPa 13,2°C 5,4km/h (1Bft) 2,6km/h 171° (S) 0,0l/m² 4,253klx 0,0min
06:15 13,2°C 88,6% 11,3°C 1020,6hPa 13,2°C 6,5km/h (2Bft) 3,2km/h 161° (S) 0,0l/m² 4,098klx 0,0min
06:10 13,2°C 88,8% 11,4°C 1020,7hPa 13,2°C 6,1km/h (2Bft) 3,1km/h 160° (S) 0,0l/m² 3,321klx 0,0min
06:05 13,1°C 89,1% 11,3°C 1020,7hPa 13,1°C 4,0km/h (1Bft) 2,0km/h 145° (SO) 0,0l/m² 2,859klx 0,0min
06:00 13,1°C 89,1% 11,3°C 1020,6hPa 13,1°C 2,9km/h (1Bft) 1,7km/h 146° (SO) 0,0l/m² 2,585klx 0,0min
05:55 13,1°C 88,9% 11,3°C 1020,6hPa 13,1°C 3,6km/h (1Bft) 2,0km/h 142° (SO) 0,0l/m² 2,205klx 0,0min
05:50 13,1°C 88,2% 11,2°C 1020,6hPa 13,1°C 5,0km/h (1Bft) 2,1km/h 138° (SO) 0,0l/m² 1,734klx 0,0min
05:45 13,3°C 87,4% 11,2°C 1020,6hPa 13,3°C 3,6km/h (1Bft) 1,9km/h 163° (S) 0,0l/m² 1,362klx 0,0min
05:40 13,4°C 86,6% 11,2°C 1020,6hPa 13,4°C 6,1km/h (2Bft) 3,3km/h 154° (SO) 0,0l/m² 1,070klx 0,0min
05:35 13,5°C 86,4% 11,3°C 1020,6hPa 13,5°C 4,3km/h (1Bft) 1,9km/h 127° (SO) 0,0l/m² 0,785klx 0,0min
05:30 13,5°C 86,8% 11,4°C 1020,6hPa 13,5°C 5,4km/h (1Bft) 2,6km/h 141° (SO) 0,0l/m² 0,536klx 0,0min
05:25 13,5°C 87,7% 11,5°C 1020,6hPa 13,5°C 4,3km/h (1Bft) 2,3km/h 204° (SW) 0,0l/m² 0,310klx 0,0min
05:20 13,6°C 87,2% 11,5°C 1020,5hPa 13,6°C 1,1km/h (0Bft) 1,0km/h 248° (W) 0,0l/m² 0,223klx 0,0min
05:15 13,4°C 87,8% 11,4°C 1020,5hPa 13,4°C 3,2km/h (1Bft) 1,7km/h 134° (SO) 0,0l/m² 0,130klx 0,0min
05:10 13,1°C 89,3% 11,4°C 1020,5hPa 13,1°C 2,9km/h (1Bft) 1,4km/h 154° (SO) 0,0l/m² 0,092klx 0,0min
05:05 13,1°C 89,1% 11,3°C 1020,5hPa 13,1°C 3,2km/h (1Bft) 1,6km/h 156° (SO) 0,0l/m² 0,070klx 0,0min
05:00 13,2°C 88,5% 11,4°C 1020,4hPa 13,2°C 3,6km/h (1Bft) 2,0km/h 136° (SO) 0,0l/m² 0,042klx 0,0min
04:55 13,3°C 88,5% 11,4°C 1020,4hPa 13,3°C 2,2km/h (1Bft) 1,2km/h 186° (S) 0,0l/m² 0,023klx 0,0min
04:50 13,4°C 87,8% 11,4°C 1020,4hPa 13,4°C 3,2km/h (1Bft) 1,7km/h 125° (SO) 0,0l/m² 0,013klx 0,0min
04:45 13,4°C 88,2% 11,5°C 1020,4hPa 13,4°C 4,0km/h (1Bft) 2,2km/h 128° (SO) 0,0l/m² 0,007klx 0,0min
04:40 13,4°C 88,6% 11,5°C 1020,4hPa 13,4°C 5,4km/h (1Bft) 2,9km/h 139° (SO) 0,0l/m² 0,004klx 0,0min
04:35 13,3°C 88,9% 11,5°C 1020,4hPa 13,3°C 5,0km/h (1Bft) 2,3km/h 115° (SO) 0,0l/m² 0,002klx 0,0min
04:30 13,4°C 88,3% 11,5°C 1020,4hPa 13,4°C 5,4km/h (1Bft) 3,2km/h 163° (S) 0,0l/m² 0,001klx 0,0min
04:25 13,5°C 87,6% 11,5°C 1020,4hPa 13,5°C 3,2km/h (1Bft) 1,7km/h 200° (S) 0,0l/m² 0,001klx 0,0min
04:20 13,6°C 87,0% 11,5°C 1020,4hPa 13,6°C 3,6km/h (1Bft) 1,8km/h 154° (SO) 0,0l/m² 0,001klx 0,0min
04:15 13,8°C 86,1% 11,5°C 1020,4hPa 13,8°C 2,9km/h (1Bft) 1,3km/h 185° (S) 0,0l/m² 0,000klx 0,0min
04:10 14,0°C 85,0% 11,5°C 1020,4hPa 14,0°C 4,0km/h (1Bft) 2,0km/h 117° (SO) 0,0l/m² 0,000klx 0,0min
04:05 14,0°C 85,6% 11,6°C 1020,5hPa 14,0°C 5,4km/h (1Bft) 2,4km/h 114° (SO) 0,0l/m² 0,000klx 0,0min
04:00 13,9°C 87,0% 11,7°C 1020,6hPa 13,9°C 4,0km/h (1Bft) 1,8km/h 163° (S) 0,0l/m² 0,000klx 0,0min
03:55 13,8°C 86,7% 11,6°C 1020,6hPa 13,8°C 2,2km/h (1Bft) 1,1km/h 167° (S) 0,0l/m² 0,000klx 0,0min
03:50 13,8°C 87,8% 11,8°C 1020,6hPa 13,8°C 3,2km/h (1Bft) 1,8km/h 207° (SW) 0,0l/m² 0,000klx 0,0min
03:45 13,8°C 86,6% 11,6°C 1020,5hPa 13,8°C 4,3km/h (1Bft) 2,3km/h 147° (SO) 0,0l/m² 0,000klx 0,0min
03:40 13,8°C 86,7% 11,6°C 1020,5hPa 13,8°C 5,0km/h (1Bft) 2,6km/h 115° (SO) 0,0l/m² 0,000klx 0,0min
03:35 13,7°C 87,7% 11,7°C 1020,5hPa 13,7°C 4,0km/h (1Bft) 1,8km/h 128° (SO) 0,0l/m² 0,000klx 0,0min
03:30 13,8°C 88,0% 11,9°C 1020,5hPa 13,8°C 3,2km/h (1Bft) 1,6km/h 202° (S) 0,0l/m² 0,000klx 0,0min
03:25 13,8°C 87,7% 11,8°C 1020,5hPa 13,8°C 4,0km/h (1Bft) 1,8km/h 132° (SO) 0,0l/m² 0,000klx 0,0min
03:20 13,7°C 88,9% 11,9°C 1020,5hPa 13,7°C 4,7km/h (1Bft) 2,7km/h 161° (S) 0,0l/m² 0,000klx 0,0min
03:15 13,6°C 88,9% 11,8°C 1020,5hPa 13,6°C 3,6km/h (1Bft) 1,8km/h 176° (S) 0,0l/m² 0,000klx 0,0min
03:10 13,7°C 89,0% 11,9°C 1020,5hPa 13,7°C 2,2km/h (1Bft) 1,2km/h 197° (S) 0,0l/m² 0,000klx 0,0min
03:05 13,6°C 88,7% 11,8°C 1020,5hPa 13,6°C 2,5km/h (1Bft) 1,2km/h 187° (S) 0,0l/m² 0,000klx 0,0min
03:00 13,6°C 88,3% 11,7°C 1020,4hPa 13,6°C 2,5km/h (1Bft) 1,1km/h 173° (S) 0,0l/m² 0,000klx 0,0min
02:55 13,7°C 87,0% 11,5°C 1020,4hPa 13,7°C 2,5km/h (1Bft) 1,3km/h 227° (SW) 0,0l/m² 0,000klx 0,0min
02:50 13,9°C 85,4% 11,4°C 1020,4hPa 13,9°C 2,9km/h (1Bft) 1,3km/h 236° (SW) 0,0l/m² 0,000klx 0,0min
02:45 13,9°C 85,6% 11,5°C 1020,3hPa 13,9°C 2,9km/h (1Bft) 1,3km/h 172° (S) 0,0l/m² 0,000klx 0,0min
02:40 13,9°C 86,7% 11,7°C 1020,4hPa 13,9°C 1,8km/h (0Bft) 1,2km/h 189° (S) 0,0l/m² 0,000klx 0,0min
02:35 14,1°C 85,9% 11,8°C 1020,4hPa 14,1°C 2,9km/h (1Bft) 1,5km/h 253° (W) 0,0l/m² 0,000klx 0,0min
02:30 14,2°C 85,3% 11,8°C 1020,4hPa 14,2°C 1,1km/h (0Bft) 0,9km/h 256° (W) 0,0l/m² 0,000klx 0,0min
02:25 14,3°C 85,0% 11,8°C 1020,4hPa 14,3°C 1,1km/h (0Bft) 0,9km/h 239° (SW) 0,0l/m² 0,000klx 0,0min
02:20 14,5°C 82,7% 11,6°C 1020,4hPa 14,5°C 0,7km/h (0Bft) 0,7km/h 301° (NW) 0,0l/m² 0,000klx 0,0min
02:15 14,6°C 81,1% 11,4°C 1020,4hPa 14,6°C 0,0km/h (0Bft) 0,0km/h - 0,0l/m² 0,000klx 0,0min
02:10 14,6°C 82,6% 11,7°C 1020,4hPa 14,6°C 0,7km/h (0Bft) 0,7km/h 304° (NW) 0,0l/m² 0,000klx 0,0min
02:05 14,6°C 85,4% 12,1°C 1020,4hPa 14,6°C 0,7km/h (0Bft) 0,7km/h 331° (NW) 0,0l/m² 0,000klx 0,0min
02:00 14,6°C 87,8% 12,6°C 1020,4hPa 14,6°C 2,2km/h (1Bft) 1,0km/h 313° (NW) 0,0l/m² 0,000klx 0,0min
01:55 14,8°C 86,0% 12,4°C 1020,3hPa 14,8°C 1,4km/h (0Bft) 1,0km/h 324° (NW) 0,0l/m² 0,000klx 0,0min
01:50 15,0°C 81,9% 11,9°C 1020,3hPa 15,0°C 0,7km/h (0Bft) 0,7km/h 308° (NW) 0,0l/m² 0,000klx 0,0min
01:45 15,0°C 83,9% 12,3°C 1020,3hPa 15,0°C 3,6km/h (1Bft) 1,4km/h 342° (N) 0,0l/m² 0,000klx 0,0min
01:40 14,9°C 86,7% 12,7°C 1020,3hPa 14,9°C 2,9km/h (1Bft) 1,3km/h 330° (NW) 0,0l/m² 0,000klx 0,0min
01:35 15,1°C 86,4% 12,8°C 1020,3hPa 15,1°C 3,6km/h (1Bft) 2,0km/h 306° (NW) 0,0l/m² 0,000klx 0,0min
01:30 15,4°C 83,2% 12,5°C 1020,2hPa 15,4°C 7,2km/h (2Bft) 2,5km/h 329° (NW) 0,0l/m² 0,000klx 0,0min
01:25 15,6°C 79,7% 12,1°C 1020,2hPa 15,6°C 7,9km/h (2Bft) 3,1km/h 340° (N) 0,0l/m² 0,000klx 0,0min
01:20 15,7°C 77,9% 11,9°C 1020,1hPa 15,7°C 7,6km/h (2Bft) 3,8km/h 357° (N) 0,0l/m² 0,000klx 0,0min
01:15 15,8°C 74,4% 11,3°C 1020,1hPa 15,8°C 11,2km/h (2Bft) 4,4km/h 7° (N) 0,0l/m² 0,000klx 0,0min
01:10 15,7°C 75,6% 11,4°C 1020,2hPa 15,7°C 9,0km/h (2Bft) 4,1km/h 12° (N) 0,0l/m² 0,000klx 0,0min
01:05 15,7°C 76,8% 11,6°C 1020,2hPa 15,7°C 5,8km/h (1Bft) 2,7km/h 346° (N) 0,0l/m² 0,000klx 0,0min
01:00 15,7°C 77,4% 11,8°C 1020,2hPa 15,7°C 2,5km/h (1Bft) 1,2km/h 9° (N) 0,0l/m² 0,000klx 0,0min
00:55 15,8°C 77,8% 11,9°C 1020,2hPa 15,8°C 2,5km/h (1Bft) 1,3km/h 328° (NW) 0,0l/m² 0,000klx 0,0min
00:50 15,7°C 78,9% 12,1°C 1020,2hPa 15,7°C 2,9km/h (1Bft) 1,4km/h 10° (N) 0,0l/m² 0,000klx 0,0min
00:45 15,7°C 79,4% 12,1°C 1020,2hPa 15,7°C 2,5km/h (1Bft) 1,1km/h 18° (N) 0,0l/m² 0,000klx 0,0min
00:40 15,7°C 78,8% 12,0°C 1020,2hPa 15,7°C 1,8km/h (0Bft) 1,0km/h 326° (NW) 0,0l/m² 0,000klx 0,0min
00:35 15,9°C 77,6% 12,0°C 1020,1hPa 15,9°C 2,5km/h (1Bft) 1,4km/h 302° (NW) 0,0l/m² 0,000klx 0,0min
00:30 16,0°C 76,4% 11,8°C 1020,0hPa 16,0°C 0,0km/h (0Bft) 0,0km/h - 0,0l/m² 0,000klx 0,0min
00:25 16,1°C 75,8% 11,8°C 1020,0hPa 16,1°C 0,0km/h (0Bft) 0,0km/h - 0,0l/m² 0,000klx 0,0min
00:20 16,2°C 75,0% 11,7°C 1020,0hPa 16,2°C 1,4km/h (0Bft) 1,1km/h 283° (W) 0,0l/m² 0,000klx 0,0min
00:15 16,3°C 73,9% 11,6°C 1019,9hPa 16,3°C 1,8km/h (0Bft) 1,2km/h 202° (S) 0,0l/m² 0,000klx 0,0min
00:10 16,4°C 72,9% 11,6°C 1019,9hPa 16,4°C 2,2km/h (1Bft) 1,2km/h 214° (SW) 0,0l/m² 0,000klx 0,0min
00:05 16,6°C 72,1% 11,6°C 1019,8hPa 16,6°C 2,2km/h (1Bft) 1,1km/h 245° (SW) 0,0l/m² 0,000klx 0,0min
00:00 16,8°C 71,3% 11,5°C 1019,8hPa 16,8°C 1,1km/h (0Bft) 0,9km/h 261° (W) 0,0l/m² 0,000klx 0,0min

Aktuelle Wetterdaten

05.07.2022 14:25 Uhr